Time;durP1;ratioP1;P1;durP2;ratioP2;P2;SDS_P1;SDS_P2;PMS_P1;PMS_P2;Temp;Humidity;BMP_temperature;BMP_pressure;BME280_temperature;BME280_humidity;BME280_pressure;Samples;Min_cycle;Max_cycle;Signal;HPM_P1;HPM_P2
2021/07/24 00:00:06;;;;;;;9.60;8.80;;;;;;;23.58;52.50;95235.19;5038842;28;20628;-86
2021/07/24 00:02:33;;;;;;;9.40;8.38;;;;;;;23.61;52.04;95224.13;5038445;28;20222;-84
2021/07/24 00:05:00;;;;;;;12.15;9.10;;;;;;;23.56;52.24;95235.44;5037775;28;20690;-85
2021/07/24 00:07:27;;;;;;;10.30;9.30;;;;;;;23.53;52.53;95227.28;5037762;28;20202;-84
2021/07/24 00:09:53;;;;;;;10.60;8.65;;;;;;;23.57;52.78;95226.50;5037278;28;20209;-84
2021/07/24 00:12:20;;;;;;;9.52;8.57;;;;;;;23.53;52.79;95222.03;5037996;28;20230;-85
2021/07/24 00:14:46;;;;;;;9.82;8.90;;;;;;;23.35;53.69;95224.13;5038895;28;20198;-85
2021/07/24 00:17:13;;;;;;;9.93;8.93;;;;;;;22.95;55.23;95222.34;5037696;28;20226;-85
2021/07/24 00:19:39;;;;;;;11.90;8.93;;;;;;;22.90;55.25;95218.94;5038282;28;20206;-84
2021/07/24 00:22:07;;;;;;;9.82;8.82;;;;;;;22.77;55.15;95211.53;5037915;28;20202;-85
2021/07/24 00:24:34;;;;;;;9.82;8.90;;;;;;;22.73;55.38;95208.63;5038610;28;20213;-85
2021/07/24 00:27:01;;;;;;;10.02;9.00;;;;;;;22.83;54.83;95213.94;5038095;28;20213;-85
2021/07/24 00:29:27;;;;;;;10.25;9.35;;;;;;;22.81;55.32;95205.53;5037423;28;20815;-86
2021/07/24 00:31:54;;;;;;;10.88;9.75;;;;;;;22.73;55.70;95201.53;5037586;28;20194;-84
2021/07/24 00:34:20;;;;;;;10.93;9.02;;;;;;;22.53;56.57;95206.78;5037210;28;20198;-84
2021/07/24 00:36:47;;;;;;;9.82;8.85;;;;;;;22.55;56.58;95194.19;5038047;28;20237;-86
2021/07/24 00:39:14;;;;;;;10.30;9.18;;;;;;;22.40;56.67;95188.91;5038712;28;20208;-85
2021/07/24 00:41:46;;;;;;;10.02;9.13;;;;;;;22.36;56.88;95186.03;5038034;28;20209;-85
2021/07/24 00:44:16;;;;;;;10.88;9.18;;;;;;;22.46;56.70;95179.22;5037718;28;20312;-84
2021/07/24 00:46:44;;;;;;;9.73;8.82;;;;;;;22.39;57.11;95176.84;5037466;28;20198;-84
2021/07/24 00:49:12;;;;;;;9.63;8.73;;;;;;;22.48;56.61;95177.13;5037928;28;20213;-84
2021/07/24 00:51:44;;;;;;;10.23;9.18;;;;;;;22.53;56.56;95175.28;5037438;28;20206;-84
2021/07/24 00:54:11;;;;;;;10.27;9.27;;;;;;;22.58;56.78;95170.06;5037796;28;20225;-84
2021/07/24 00:56:40;;;;;;;9.95;8.95;;;;;;;22.63;56.54;95166.66;5036540;28;20222;-84
2021/07/24 00:59:06;;;;;;;9.70;8.80;;;;;;;22.68;56.41;95166.66;5037862;28;20210;-84
2021/07/24 01:01:33;;;;;;;10.77;9.73;;;;;;;22.55;56.92;95161.91;5037179;28;20212;-85
2021/07/24 01:04:00;;;;;;;9.93;9.02;;;;;;;22.53;56.87;95170.03;5036793;28;20670;-85
2021/07/24 01:06:26;;;;;;;10.50;9.55;;;;;;;22.55;56.37;95164.53;5036859;28;20209;-84
2021/07/24 01:08:53;;;;;;;9.70;8.85;;;;;;;22.55;56.37;95167.94;5035833;28;20210;-84
2021/07/24 01:11:19;;;;;;;9.88;9.07;;;;;;;22.60;56.19;95162.72;5036028;28;20208;-85
2021/07/24 01:13:50;;;;;;;10.68;9.55;;;;;;;22.71;56.08;95163.47;5036305;28;20222;-85
2021/07/24 01:16:16;;;;;;;10.15;9.25;;;;;;;22.76;56.07;95160.88;5035572;28;20226;-85
2021/07/24 01:18:43;;;;;;;10.93;9.30;;;;;;;22.60;56.41;95148.78;5036352;28;20215;-83
2021/07/24 01:21:11;;;;;;;10.30;9.30;;;;;;;22.66;55.80;95156.41;5036240;28;20281;-84
2021/07/24 01:23:39;;;;;;;10.55;9.55;;;;;;;22.69;55.92;95157.75;5035844;28;20226;-84
2021/07/24 01:26:06;;;;;;;11.13;9.20;;;;;;;22.75;55.79;95159.28;5036565;28;20198;-85
2021/07/24 01:28:34;;;;;;;10.27;9.27;;;;;;;22.77;55.89;95159.03;5036346;28;20206;-85
2021/07/24 01:31:04;;;;;;;9.90;9.00;;;;;;;22.80;55.62;95151.44;5035801;28;20214;-83
2021/07/24 01:33:32;;;;;;;9.85;8.95;;;;;;;22.70;56.03;95146.97;5035308;28;20839;-84
2021/07/24 01:35:59;;;;;;;9.85;9.05;;;;;;;22.71;56.02;95145.91;5036019;28;20206;-85
2021/07/24 01:38:26;;;;;;;10.18;9.27;;;;;;;22.67;56.28;95144.09;5036561;28;20578;-85
2021/07/24 01:40:53;;;;;;;10.10;9.20;;;;;;;22.69;55.88;95150.66;5035922;28;20212;-85
2021/07/24 01:43:20;;;;;;;10.07;9.20;;;;;;;22.68;56.10;95143.03;5036376;28;20222;-86
2021/07/24 01:45:46;;;;;;;10.48;9.45;;;;;;;22.36;57.32;95138.81;5035483;28;20229;-86
2021/07/24 01:48:16;;;;;;;10.15;9.18;;;;;;;22.37;56.72;95145.63;5036311;28;20202;-86
2021/07/24 01:53:30;;;;;;;10.48;9.48;;;;;;;22.44;56.42;95141.97;5035557;28;20213;-84
2021/07/24 01:56:01;;;;;;;10.23;9.02;;;;;;;22.48;56.05;95140.41;5035953;28;20209;-84
2021/07/24 01:58:30;;;;;;;14.20;9.60;;;;;;;22.55;55.67;95143.53;5036257;28;20607;-84
2021/07/24 02:01:00;;;;;;;10.77;9.88;;;;;;;22.58;55.76;95148.28;5035584;28;20206;-84
2021/07/24 02:03:33;;;;;;;11.38;9.40;;;;;;;22.56;55.54;95151.16;5035800;28;20257;-84
2021/07/24 02:06:00;;;;;;;10.80;9.80;;;;;;;22.48;56.45;95143.03;5035667;28;20198;-84
2021/07/24 02:08:28;;;;;;;11.23;10.20;;;;;;;22.47;56.02;95139.63;5035674;28;20206;-83
2021/07/24 02:10:55;;;;;;;10.82;9.80;;;;;;;22.53;56.06;95132.50;5034819;28;20208;-84
2021/07/24 02:13:24;;;;;;;10.52;9.50;;;;;;;22.49;56.25;95134.91;5035931;28;20233;-85
2021/07/24 02:15:50;;;;;;;11.38;10.32;;;;;;;22.55;56.15;95131.22;5035408;28;20230;-84
2021/07/24 02:18:18;;;;;;;11.00;10.00;;;;;;;22.56;56.58;95132.00;5034824;28;20225;-84
2021/07/24 02:20:49;;;;;;;11.30;9.68;;;;;;;22.59;56.04;95129.63;5034796;28;20661;-84
2021/07/24 02:23:16;;;;;;;10.93;9.82;;;;;;;22.56;56.13;95132.78;5034788;28;20222;-84
2021/07/24 02:25:43;;;;;;;11.23;10.13;;;;;;;22.60;56.04;95140.94;5034875;28;20202;-85
2021/07/24 02:28:13;;;;;;;11.18;10.10;;;;;;;22.59;56.57;95127.00;5035958;28;20204;-85
2021/07/24 02:30:41;;;;;;;11.98;10.93;;;;;;;22.48;57.44;95138.56;5035296;28;20266;-86
2021/07/24 02:33:08;;;;;;;13.02;10.95;;;;;;;22.40;57.48;95136.44;5035290;28;20611;-85
2021/07/24 02:35:34;;;;;;;12.05;10.80;;;;;;;22.35;57.81;95146.94;5035788;28;20202;-84
2021/07/24 02:38:02;;;;;;;11.95;10.73;;;;;;;22.16;59.19;95141.41;5035304;28;20309;-84
2021/07/24 02:40:29;;;;;;;11.95;10.75;;;;;;;22.21;58.62;95148.50;5035260;28;20206;-83
2021/07/24 02:42:55;;;;;;;11.35;10.35;;;;;;;22.27;58.02;95156.13;5035373;28;20226;-85
2021/07/24 02:45:23;;;;;;;11.10;10.02;;;;;;;22.29;58.35;95148.00;5036135;28;20264;-85
2021/07/24 02:47:51;;;;;;;10.38;9.32;;;;;;;22.37;57.98;95150.09;5035263;28;20202;-85
2021/07/24 02:50:18;;;;;;;12.43;10.27;;;;;;;22.37;58.68;95152.72;5036164;28;20202;-86
2021/07/24 02:52:44;;;;;;;11.35;10.35;;;;;;;22.32;58.13;95158.72;5035448;28;20226;-85
2021/07/24 02:55:12;;;;;;;11.25;10.23;;;;;;;22.26;58.66;95170.28;5034898;28;20209;-84
2021/07/24 02:57:38;;;;;;;11.43;10.25;;;;;;;22.20;58.69;95160.03;5033750;28;20233;-85
2021/07/24 03:00:06;;;;;;;10.77;9.77;;;;;;;22.21;58.96;95175.50;5035376;28;20216;-85
2021/07/24 03:02:33;;;;;;;10.95;9.90;;;;;;;22.22;59.22;95176.28;5035356;28;20249;-85
2021/07/24 03:05:00;;;;;;;10.52;9.60;;;;;;;22.22;58.78;95165.81;5034924;28;20202;-84
2021/07/24 03:07:27;;;;;;;11.10;10.10;;;;;;;22.17;58.85;95168.41;5035164;28;20198;-84
2021/07/24 03:09:53;;;;;;;11.93;10.82;;;;;;;21.97;59.46;95163.88;5034984;28;20210;-85
2021/07/24 03:12:20;;;;;;;12.55;10.48;;;;;;;21.91;60.30;95165.72;5035291;28;20229;-86
2021/07/24 03:14:46;;;;;;;11.27;10.13;;;;;;;21.96;59.68;95159.66;5035810;28;20302;-85
2021/07/24 03:17:13;;;;;;;10.95;10.00;;;;;;;21.99;60.06;95170.44;5035419;28;20705;-85
2021/07/24 03:19:39;;;;;;;11.82;10.82;;;;;;;21.98;59.78;95175.94;5035389;28;20206;-83
2021/07/24 03:22:07;;;;;;;12.18;11.00;;;;;;;21.88;60.21;95158.34;5035290;28;20198;-84
2021/07/24 03:24:34;;;;;;;12.80;10.75;;;;;;;21.61;60.88;95168.19;5035283;28;20198;-84
2021/07/24 03:27:00;;;;;;;11.38;10.27;;;;;;;21.41;61.44;95168.88;5035640;28;20198;-86
2021/07/24 03:29:27;;;;;;;11.10;10.10;;;;;;;21.46;61.42;95168.91;5035773;28;20202;-85
2021/07/24 03:31:53;;;;;;;12.05;11.00;;;;;;;21.61;61.42;95168.19;5035531;28;20677;-84
2021/07/24 03:34:20;;;;;;;11.20;10.20;;;;;;;21.63;61.33;95166.09;5039784;28;20202;-85
2021/07/24 03:36:46;;;;;;;11.27;10.27;;;;;;;21.62;61.45;95167.94;5038698;28;20222;-86
2021/07/24 03:39:14;;;;;;;11.25;10.25;;;;;;;21.61;61.68;95161.13;5038558;28;20206;-85
2021/07/24 03:41:40;;;;;;;11.00;10.07;;;;;;;21.67;61.25;95154.88;5038233;28;20697;-85
2021/07/24 03:44:07;;;;;;;11.57;10.45;;;;;;;21.54;61.96;95154.56;5038368;28;20230;-85
2021/07/24 03:46:34;;;;;;;11.90;10.70;;;;;;;21.51;62.17;95153.22;5038206;28;20206;-85
2021/07/24 03:49:01;;;;;;;12.52;11.20;;;;;;;21.46;62.07;95161.06;5038509;28;20666;-85
2021/07/24 03:51:27;;;;;;;11.80;10.70;;;;;;;21.34;63.14;95156.03;5038034;28;20619;-84
2021/07/24 03:53:54;;;;;;;11.40;10.40;;;;;;;21.22;63.48;95146.78;5038804;28;20233;-84
2021/07/24 03:56:22;;;;;;;11.05;9.77;;;;;;;21.37;63.45;95146.84;5038450;28;20734;-84
2021/07/24 03:58:51;;;;;;;11.45;10.35;;;;;;;21.28;63.28;95140.53;5038274;28;20222;-83
2021/07/24 04:01:19;;;;;;;11.23;10.00;;;;;;;21.24;63.00;95137.63;5038131;28;20212;-84
2021/07/24 04:03:45;;;;;;;12.10;10.90;;;;;;;21.03;64.31;95141.94;5037808;28;20230;-84
2021/07/24 04:06:17;;;;;;;12.88;11.15;;;;;;;20.95;64.01;95131.94;5039027;28;20202;-84
2021/07/24 04:08:44;;;;;;;11.65;10.35;;;;;;;21.03;64.74;95136.69;5039003;28;20209;-86
2021/07/24 04:11:10;;;;;;;12.10;10.95;;;;;;;21.25;64.16;95136.59;5037795;28;20209;-84
2021/07/24 04:13:38;;;;;;;11.93;10.70;;;;;;;21.47;63.41;95140.88;5038414;28;20761;-85
2021/07/24 04:16:06;;;;;;;11.27;10.25;;;;;;;21.59;62.57;95142.25;5038097;28;20206;-83
2021/07/24 04:18:34;;;;;;;11.32;10.27;;;;;;;21.61;63.72;95134.91;5037871;28;20713;-84
2021/07/24 04:21:01;;;;;;;10.60;9.60;;;;;;;21.69;63.11;95144.13;5037020;28;20202;-84
2021/07/24 04:23:27;;;;;;;10.80;9.80;;;;;;;21.56;63.38;95140.13;5038351;28;20222;-86
2021/07/24 04:25:54;;;;;;;11.07;9.98;;;;;;;21.47;63.46;95128.59;5038145;28;20206;-85
2021/07/24 04:28:21;;;;;;;11.82;10.63;;;;;;;21.30;64.30;95141.88;5038352;28;20205;-83
2021/07/24 04:30:49;;;;;;;12.05;10.73;;;;;;;21.36;65.31;95148.69;5038262;28;20210;-85
2021/07/24 04:33:15;;;;;;;11.10;10.00;;;;;;;21.59;64.29;95149.31;5037497;28;20294;-84
2021/07/24 04:35:45;;;;;;;10.65;9.73;;;;;;;21.75;64.18;95147.53;5037481;28;20205;-84
2021/07/24 04:38:12;;;;;;;12.23;10.30;;;;;;;21.93;63.07;95149.72;5037292;28;20276;-84
2021/07/24 04:40:39;;;;;;;10.75;9.80;;;;;;;21.92;63.07;95145.53;5037848;28;20205;-84
2021/07/24 04:43:05;;;;;;;11.38;10.35;;;;;;;21.78;63.77;95147.81;5038335;28;20283;-84
2021/07/24 04:45:32;;;;;;;10.85;9.85;;;;;;;21.80;63.81;95139.69;5038525;28;20212;-85
2021/07/24 04:48:00;;;;;;;11.05;9.90;;;;;;;21.88;63.46;95145.25;5038810;28;20252;-84
2021/07/24 04:50:27;;;;;;;11.80;10.60;;;;;;;21.95;62.65;95129.25;5038983;28;20209;-84
2021/07/24 04:52:53;;;;;;;12.07;10.88;;;;;;;21.94;63.19;95128.47;5037651;28;20222;-85
2021/07/24 04:55:20;;;;;;;12.55;11.35;;;;;;;21.98;63.25;95126.13;5037821;28;20265;-85
2021/07/24 04:57:47;;;;;;;11.55;10.50;;;;;;;21.83;63.45;95118.22;5038401;28;20226;-85
2021/07/24 05:00:15;;;;;;;13.55;11.15;;;;;;;21.92;63.54;95116.69;5038425;28;20658;-85
2021/07/24 05:02:42;;;;;;;11.90;10.80;;;;;;;21.99;62.96;95115.38;5037726;28;20879;-85
2021/07/24 05:05:11;;;;;;;13.23;10.98;;;;;;;22.14;62.38;95114.63;5038650;28;20293;-85
2021/07/24 05:07:37;;;;;;;12.30;11.05;;;;;;;22.22;61.85;95122.00;5040469;28;20199;-83
2021/07/24 05:10:08;;;;;;;12.93;11.65;;;;;;;22.28;62.05;95128.06;5038365;28;20212;-85
2021/07/24 05:12:35;;;;;;;11.82;10.52;;;;;;;22.32;63.31;95122.00;5038345;28;20625;-85
2021/07/24 05:15:01;;;;;;;12.30;11.10;;;;;;;22.47;62.66;95123.88;5038206;28;20208;-86
2021/07/24 05:17:28;;;;;;;11.68;10.57;;;;;;;22.58;61.43;95128.06;5037410;28;20230;-84
2021/07/24 05:19:57;;;;;;;11.77;10.68;;;;;;;22.73;60.93;95130.69;5037108;28;20755;-84
2021/07/24 05:22:25;;;;;;;12.25;11.15;;;;;;;22.67;60.63;95128.34;5038596;28;20230;-85
2021/07/24 05:24:55;;;;;;;12.00;10.80;;;;;;;22.50;61.63;95122.56;5037609;28;20206;-83
2021/07/24 05:27:21;;;;;;;11.82;10.82;;;;;;;22.48;60.53;95127.28;5038191;28;20689;-84
2021/07/24 05:29:48;;;;;;;12.35;11.15;;;;;;;22.47;61.41;95144.88;5037538;28;20202;-85
2021/07/24 05:32:16;;;;;;;12.02;10.90;;;;;;;22.33;62.20;95134.06;5037859;28;20308;-86
2021/07/24 05:34:45;;;;;;;12.90;11.35;;;;;;;22.47;60.99;95131.75;5037217;28;20285;-85
2021/07/24 05:37:12;;;;;;;12.93;11.63;;;;;;;22.54;59.96;95127.00;5037925;28;20198;-83
2021/07/24 05:39:39;;;;;;;12.90;11.63;;;;;;;22.52;60.43;95125.69;5038199;28;20929;-85
2021/07/24 05:42:06;;;;;;;12.25;11.07;;;;;;;22.58;60.05;95106.28;5037946;28;20577;-85
2021/07/24 05:44:32;;;;;;;13.25;11.50;;;;;;;22.62;60.67;95105.50;5038050;28;20674;-85
2021/07/24 05:47:02;;;;;;;13.48;10.40;;;;;;;22.67;61.00;95105.50;5038224;28;20198;-86
2021/07/24 05:49:29;;;;;;;12.40;10.88;;;;;;;22.77;59.38;95096.84;5037731;28;20194;-85
2021/07/24 05:51:55;;;;;;;12.38;11.07;;;;;;;22.83;59.54;95087.94;5037904;28;20195;-83
2021/07/24 05:54:22;;;;;;;11.45;10.35;;;;;;;22.78;60.00;95087.13;5037561;28;20202;-85
2021/07/24 05:56:50;;;;;;;12.73;11.50;;;;;;;22.82;59.32;95083.72;5038281;28;20269;-85
2021/07/24 05:59:17;;;;;;;12.00;10.80;;;;;;;22.82;58.76;95075.84;5038495;28;20605;-86
2021/07/24 06:01:44;;;;;;;12.75;10.57;;;;;;;22.84;59.19;95068.50;5037339;28;20202;-86
2021/07/24 06:04:12;;;;;;;11.70;10.55;;;;;;;22.93;59.67;95073.97;5037341;28;20640;-85
2021/07/24 06:06:43;;;;;;;12.27;11.05;;;;;;;22.83;59.30;95089.75;5036752;28;20297;-85
2021/07/24 06:09:10;;;;;;;11.95;10.75;;;;;;;22.86;58.96;95094.50;5036914;28;20289;-85
2021/07/24 06:11:42;;;;;;;13.18;11.55;;;;;;;23.02;58.04;95103.91;5036532;28;20612;-85
2021/07/24 06:14:29;;;;;;;11.90;10.70;;;;;;;23.11;58.19;95102.28;5036617;28;20737;-85
2021/07/24 06:17:07;;;;;;;12.07;10.88;;;;;;;23.18;59.08;95104.66;5038338;28;20206;-86
2021/07/24 06:19:41;;;;;;;12.73;11.40;;;;;;;23.25;58.22;95099.91;5037297;28;20222;-87
2021/07/24 06:22:18;;;;;;;12.13;10.82;;;;;;;23.40;57.84;95111.16;5037334;28;20206;-87
2021/07/24 06:25:27;;;;;;;11.90;10.70;;;;;;;23.45;58.23;95120.88;5036629;28;20280;-87
2021/07/24 06:27:56;;;;;;;12.00;10.80;;;;;;;23.49;57.07;95128.97;5010685;28;20248;-86
2021/07/24 06:30:47;;;;;;;;;;;;;;;;;;;;;
2021/07/24 06:33:17;;;;;;;17.77;11.30;;;;;;;23.36;58.50;95117.22;5022687;28;20290;-86
2021/07/24 06:38:48;;;;;;;12.27;11.07;;;;;;;23.35;57.86;95103.28;4992840;28;20226;-87
2021/07/24 06:41:20;;;;;;;13.60;11.02;;;;;;;23.47;58.33;95112.72;5036624;28;20680;-86
2021/07/24 06:43:47;;;;;;;12.40;11.05;;;;;;;23.55;57.92;95131.34;5035496;28;20764;-87
2021/07/24 06:46:25;;;;;;;12.00;10.80;;;;;;;23.73;57.16;95145.75;5037350;28;20202;-85
2021/07/24 06:48:52;;;;;;;12.20;11.02;;;;;;;23.91;56.52;95158.28;5034797;28;20224;-87
2021/07/24 06:51:26;;;;;;;12.77;11.57;;;;;;;24.05;56.16;95161.13;5035159;28;20256;-85
2021/07/24 06:56:40;;;;;;;11.85;10.65;;;;;;;24.03;55.02;95142.97;5033630;28;20289;-87
2021/07/24 06:59:10;;;;;;;11.93;10.73;;;;;;;24.17;55.35;95152.91;5035368;28;20281;-87
2021/07/24 07:01:40;;;;;;;12.07;10.98;;;;;;;24.31;55.65;95157.31;5035066;28;20226;-87
2021/07/24 07:04:28;;;;;;;11.88;10.02;;;;;;;24.41;55.26;95161.72;5035107;28;20696;-87
2021/07/24 07:06:55;;;;;;;11.80;10.60;;;;;;;24.55;54.93;95167.16;5036716;28;20519;-86
2021/07/24 07:09:21;;;;;;;11.73;10.63;;;;;;;24.54;54.05;95176.91;5038637;28;20285;-86
2021/07/24 07:12:00;;;;;;;12.07;10.85;;;;;;;24.57;54.12;95175.56;5038603;28;20198;-87
2021/07/24 07:14:28;;;;;;;12.38;10.88;;;;;;;24.61;53.88;95177.38;5039197;28;20229;-86
2021/07/24 07:16:56;;;;;;;11.80;10.70;;;;;;;24.72;54.18;95184.13;5039596;28;20212;-85
2021/07/24 07:19:23;;;;;;;14.93;11.13;;;;;;;24.75;52.92;95182.81;5039447;28;20224;-86
2021/07/24 07:21:50;;;;;;;11.82;10.73;;;;;;;24.80;53.59;95190.69;5038067;28;20285;-86
2021/07/24 07:24:16;;;;;;;12.40;10.48;;;;;;;24.86;53.04;95200.09;5039546;28;20633;-86
2021/07/24 07:26:51;;;;;;;12.00;10.90;;;;;;;24.93;52.57;95210.31;5039359;28;20205;-86
2021/07/24 07:29:18;;;;;;;14.75;10.93;;;;;;;24.82;53.17;95209.63;5039218;28;20289;-85
2021/07/24 07:31:44;;;;;;;12.50;11.20;;;;;;;24.91;52.96;95215.84;5038749;28;20206;-85
2021/07/24 07:34:14;;;;;;;12.90;11.52;;;;;;;25.01;52.83;95222.94;5039617;28;20233;-86
2021/07/24 07:36:44;;;;;;;12.02;10.90;;;;;;;25.09;53.17;95228.38;5039289;28;20256;-85
2021/07/24 07:39:21;;;;;;;11.05;9.88;;;;;;;25.15;54.34;95246.78;5037706;28;20225;-86
2021/07/24 07:41:47;;;;;;;10.75;9.65;;;;;;;25.14;54.71;95261.81;5037302;28;20201;-85
2021/07/24 07:44:14;;;;;;;11.48;10.30;;;;;;;25.12;54.28;95269.22;5036542;28;20234;-86
2021/07/24 07:46:46;;;;;;;12.10;11.00;;;;;;;24.97;54.59;95285.13;5036871;28;20206;-87
2021/07/24 07:49:14;;;;;;;11.55;10.45;;;;;;;24.94;55.43;95293.56;5037969;28;20248;-85
2021/07/24 07:51:43;;;;;;;12.02;10.88;;;;;;;24.85;56.25;95298.59;5038457;28;20282;-86
2021/07/24 07:54:13;;;;;;;13.10;11.07;;;;;;;24.74;56.54;95292.63;5037131;28;20215;-87
2021/07/24 07:56:43;;;;;;;13.85;12.55;;;;;;;24.56;57.91;95306.41;5037177;28;20257;-85
2021/07/24 07:59:12;;;;;;;13.57;12.10;;;;;;;24.48;58.46;95301.69;5038064;28;20210;-86
2021/07/24 08:01:39;;;;;;;13.23;11.50;;;;;;;24.58;58.67;95287.72;5039116;28;20217;-85
2021/07/24 08:06:49;;;;;;;13.15;11.88;;;;;;;24.62;59.42;95292.16;5036764;28;20550;-85
2021/07/24 08:09:30;;;;;;;12.65;11.35;;;;;;;24.65;57.93;95282.91;5039728;28;20673;-85
2021/07/24 08:11:57;;;;;;;12.38;10.68;;;;;;;24.52;57.98;95284.31;5036076;28;20461;-85
2021/07/24 08:14:24;;;;;;;13.07;10.52;;;;;;;24.61;57.34;95274.00;5035303;28;20233;-86
2021/07/24 08:16:50;;;;;;;11.98;10.88;;;;;;;24.74;57.52;95276.03;5035942;28;20202;-85
2021/07/24 08:19:17;;;;;;;13.10;11.70;;;;;;;24.79;57.89;95273.38;5036805;28;20214;-86
2021/07/24 08:21:51;;;;;;;13.00;11.70;;;;;;;24.76;57.92;95255.47;5036894;28;20218;-85
2021/07/24 08:24:32;;;;;;;13.02;11.57;;;;;;;24.81;57.41;95252.03;5037040;28;20205;-86
2021/07/24 08:27:15;;;;;;;12.38;11.27;;;;;;;24.84;58.13;95251.47;5032450;28;20212;-87
2021/07/24 08:29:41;;;;;;;12.48;10.73;;;;;;;24.75;57.31;95246.78;5036828;28;20229;-87
2021/07/24 08:32:09;;;;;;;11.55;10.32;;;;;;;24.81;57.38;95246.75;5035787;28;20275;-86
2021/07/24 08:34:35;;;;;;;13.55;10.82;;;;;;;24.85;57.04;95245.91;5036747;28;20293;-86
2021/07/24 08:37:02;;;;;;;12.52;11.38;;;;;;;24.87;57.37;95251.72;5033458;28;20569;-85
2021/07/24 08:39:46;;;;;;;13.40;12.13;;;;;;;24.82;59.12;95246.50;5032889;28;20222;-86
2021/07/24 08:42:45;;;;;;;26.45;23.85;;;;;;;24.83;58.33;95241.97;5032515;28;20605;-86
2021/07/24 08:45:14;;;;;;;15.27;13.57;;;;;;;24.85;57.94;95238.03;5032545;28;20202;-85
2021/07/24 08:47:42;;;;;;;12.77;11.30;;;;;;;24.82;59.21;95240.44;5032270;28;20209;-86
2021/07/24 08:50:11;;;;;;;12.70;11.40;;;;;;;24.83;58.75;95237.50;5032471;28;20637;-86
2021/07/24 08:52:38;;;;;;;12.02;10.90;;;;;;;24.81;59.19;95233.59;5032379;28;20248;-86
2021/07/24 08:55:08;;;;;;;12.63;11.32;;;;;;;24.78;58.90;95233.09;5032381;28;20202;-85
2021/07/24 08:57:40;;;;;;;14.40;13.00;;;;;;;24.74;59.06;95221.50;5032263;28;20206;-86
2021/07/24 09:00:11;;;;;;;15.25;13.77;;;;;;;24.71;59.60;95216.78;5032675;28;20225;-85
2021/07/24 09:02:39;;;;;;;18.95;17.10;;;;;;;24.71;59.90;95216.00;5032644;28;20226;-86
2021/07/24 09:05:08;;;;;;;13.88;12.43;;;;;;;24.71;60.42;95213.38;5032482;28;20198;-86
2021/07/24 09:07:44;;;;;;;13.20;11.70;;;;;;;24.67;62.49;95214.97;5032747;28;20203;-86
2021/07/24 09:10:12;;;;;;;13.23;10.93;;;;;;;24.62;61.97;95213.19;5032233;28;20201;-85
2021/07/24 09:12:40;;;;;;;13.10;11.80;;;;;;;24.54;60.70;95239.28;5032275;28;20222;-86
2021/07/24 09:15:09;;;;;;;13.45;12.00;;;;;;;24.29;62.33;95241.00;5032208;28;20210;-85
2021/07/24 09:17:36;;;;;;;12.80;11.48;;;;;;;24.20;62.92;95237.34;5032505;28;20202;-86
2021/07/24 09:20:02;;;;;;;14.57;12.15;;;;;;;24.25;63.47;95247.06;5032951;28;20218;-85
2021/07/24 09:22:30;;;;;;;15.60;12.00;;;;;;;24.19;63.10;95248.91;5033512;28;20260;-84
2021/07/24 09:25:08;;;;;;;12.38;11.07;;;;;;;24.14;63.55;95235.00;5033405;28;20209;-85
2021/07/24 09:27:37;;;;;;;11.95;10.85;;;;;;;24.19;61.70;95230.50;5033825;28;20201;-84
2021/07/24 09:30:04;;;;;;;13.75;11.18;;;;;;;24.22;62.04;95245.75;5032367;28;20202;-86
2021/07/24 09:32:39;;;;;;;12.45;10.95;;;;;;;24.37;61.70;95237.03;5032798;28;20221;-85
2021/07/24 09:35:34;;;;;;;11.68;10.45;;;;;;;24.73;60.68;95240.22;5033586;28;20259;-84
2021/07/24 09:38:32;;;;;;;11.15;10.13;;;;;;;24.96;59.54;95246.69;5032873;28;20206;-84
2021/07/24 09:41:04;;;;;;;11.60;10.10;;;;;;;25.36;58.76;95235.81;5033189;28;20206;-85
2021/07/24 09:43:41;;;;;;;12.02;10.82;;;;;;;25.59;58.44;95234.28;5032700;28;20230;-85
2021/07/24 09:46:12;;;;;;;11.48;10.38;;;;;;;25.80;57.99;95227.72;5033441;28;20210;-84
2021/07/24 09:48:41;;;;;;;11.75;10.65;;;;;;;25.93;57.77;95228.13;5032615;28;20225;-85
2021/07/24 09:51:22;;;;;;;11.27;10.13;;;;;;;26.28;56.86;95226.91;5033065;28;20608;-83
2021/07/24 09:53:49;;;;;;;11.90;10.82;;;;;;;26.45;55.51;95228.00;5032370;28;20228;-85
2021/07/24 09:56:43;;;;;;;14.70;10.45;;;;;;;26.47;55.04;95244.34;5032447;28;20201;-84
2021/07/24 09:59:22;;;;;;;10.68;9.63;;;;;;;26.29;55.11;95239.03;5031638;28;20309;-83
2021/07/24 10:02:00;;;;;;;11.48;10.27;;;;;;;26.18;54.79;95238.34;5032200;28;20662;-86
2021/07/24 10:04:31;;;;;;;14.57;13.10;;;;;;;26.15;55.43;95244.22;5032002;28;20194;-87
2021/07/24 10:07:00;;;;;;;11.13;10.00;;;;;;;26.13;55.25;95246.34;5032036;28;20206;-87
2021/07/24 10:09:37;;;;;;;10.80;9.60;;;;;;;26.17;55.72;95242.84;5032463;28;20662;-87
2021/07/24 10:12:05;;;;;;;10.68;9.68;;;;;;;26.25;54.02;95251.22;5032339;28;20825;-86
2021/07/24 10:14:39;;;;;;;10.68;9.60;;;;;;;26.31;53.94;95242.22;5031558;28;20232;-87
2021/07/24 10:17:09;;;;;;;10.98;9.88;;;;;;;26.26;54.43;95229.81;5031468;28;20237;-87
2021/07/24 10:19:41;;;;;;;10.77;9.68;;;;;;;26.27;55.69;95235.88;5031598;28;20771;-86
2021/07/24 10:22:14;;;;;;;11.30;10.13;;;;;;;26.13;55.30;95220.75;5031093;28;20198;-86
2021/07/24 10:24:42;;;;;;;10.32;9.35;;;;;;;26.26;55.49;95213.97;5031972;28;20202;-86
2021/07/24 10:34:02;;;;;;;11.55;10.10;;;;;;;26.52;55.22;95192.56;4936525;28;20238;-87
2021/07/24 10:36:38;;;;;;;11.80;10.55;;;;;;;26.60;53.56;95184.75;5026319;28;20194;-87
2021/07/24 10:39:28;;;;;;;11.38;10.32;;;;;;;26.83;52.83;95177.81;5030956;28;20225;-86
2021/07/24 10:42:14;;;;;;;11.52;10.43;;;;;;;27.03;53.06;95185.44;5031742;28;20203;-87
2021/07/24 10:44:45;;;;;;;11.13;9.95;;;;;;;27.20;52.20;95174.31;5031941;28;20214;-87
2021/07/24 10:47:18;;;;;;;11.40;10.20;;;;;;;27.31;51.61;95177.56;5030926;28;20759;-87
2021/07/24 10:50:07;;;;;;;12.13;10.43;;;;;;;27.49;50.32;95176.72;5030702;28;20202;-87
2021/07/24 10:53:11;;;;;;;11.43;10.32;;;;;;;27.56;50.01;95185.03;5030815;28;20585;-87
2021/07/24 10:55:52;;;;;;;11.57;10.40;;;;;;;27.89;49.86;95185.75;5030907;28;20289;-86
2021/07/24 10:58:20;;;;;;;13.07;11.88;;;;;;;28.01;49.11;95167.50;5031247;28;20198;-86
2021/07/24 11:01:15;;;;;;;12.18;10.90;;;;;;;28.14;47.72;95160.59;5031039;28;20264;-87
2021/07/24 11:03:52;;;;;;;11.15;10.07;;;;;;;28.29;48.62;95144.41;5031358;28;20228;-87
2021/07/24 11:06:33;;;;;;;11.38;10.27;;;;;;;28.44;48.66;95149.38;5032001;28;20687;-87
2021/07/24 11:09:17;;;;;;;12.05;10.88;;;;;;;28.59;48.39;95161.50;5032922;28;20725;-87
2021/07/24 11:15:08;;;;;;;11.57;10.48;;;;;;;28.69;47.34;95153.28;5039151;22;20232;-86
2021/07/24 11:17:34;;;;;;;11.15;10.18;;;;;;;28.87;47.39;95160.28;5027999;28;20289;-86
2021/07/24 11:24:17;;;;;;;10.73;9.63;;;;;;;28.94;45.75;95138.69;5017145;28;20263;-87
2021/07/24 11:27:17;;;;;;;11.65;9.63;;;;;;;29.18;46.70;95143.66;5036363;28;20209;-86
2021/07/24 11:29:44;;;;;;;11.02;9.93;;;;;;;29.35;46.60;95153.53;5038389;28;20195;-87
2021/07/24 11:32:13;;;;;;;10.40;9.40;;;;;;;29.10;46.46;95142.50;5039253;28;20202;-86
2021/07/24 11:34:56;;;;;;;10.70;9.30;;;;;;;29.23;45.30;95140.09;5038697;28;20668;-87
2021/07/24 11:37:45;;;;;;;10.52;9.23;;;;;;;29.16;45.52;95143.16;5040255;28;20205;-87
2021/07/24 11:40:22;;;;;;;10.65;9.10;;;;;;;28.94;44.67;95138.69;5040909;28;20228;-87
2021/07/24 11:43:23;;;;;;;11.57;10.18;;;;;;;28.74;44.83;95136.50;5039080;28;20237;-87
2021/07/24 11:46:15;;;;;;;10.10;9.20;;;;;;;28.70;46.40;95135.53;5039855;28;20199;-87
2021/07/24 11:48:45;;;;;;;10.27;9.32;;;;;;;28.67;46.71;95133.50;5043315;28;20363;-87
2021/07/24 11:51:15;;;;;;;10.38;9.38;;;;;;;28.77;46.28;95127.94;5042533;28;20238;-87
2021/07/24 11:53:58;;;;;;;10.70;9.60;;;;;;;28.71;46.91;95131.78;5043100;28;20285;-87
2021/07/24 11:56:30;;;;;;;10.45;9.38;;;;;;;28.55;47.68;95131.38;5048017;28;20301;-87
2021/07/24 11:59:18;;;;;;;10.82;9.82;;;;;;;28.37;47.03;95119.09;5048561;28;20209;-87
2021/07/24 12:01:54;;;;;;;10.07;9.07;;;;;;;28.37;48.03;95117.22;5051614;28;20194;-86